Thousand Island Park, New York
Current Conditions -  °F | °C
As of 10:56 PM on Thursday 18 Dec 2014 (Local Time) from KART Reporting Station
Overcast Overcast  
Wind Chill: -5°   Ceiling: 1800
Heat Index: -2°   Visibility: 10mi
Dew Point: -6°   Wind: 5mph
Humidity: 75%   Direction: 360°N
Pressure: 30.02"   Gusts: NA
Location:  44.29°N, 76.03°W
Report Text: KART 190356Z AUTO 36004KT 10SM OVC018 M02/M06 A3002 RMK AO2 SLP171 T10221061
Loading
Personal Weather Stations






























Interactive Weather Map New forecast layout! Learn more

10-Day Weather Forecast

Advertisements
Track Severe Weather on mobile